Metar z połowy godziny Komunikat METAR ze strony awiacja.imgw.pl Metar G00 EPWR METAR EPWR 090830Z 27003KT 240V300 9999 FEW026 20/15 Q1015 =